Time;durP1;ratioP1;P1;durP2;ratioP2;P2;SDS_P1;SDS_P2;PMS_P1;PMS_P2;Temp;Humidity;BMP_temperature;BMP_pressure;BME280_temperature;BME280_humidity;BME280_pressure;Samples;Min_cycle;Max_cycle;Signal;HPM_P1;HPM_P2
2023/05/27 00:00:55;;;;;;;18.48;4.00;;;;;;;;;;4968824;28;20593;-69
2023/05/27 00:03:21;;;;;;;17.50;4.22;;;;;;;;;;4970477;28;20030;-67
2023/05/27 00:05:46;;;;;;;20.17;4.32;;;;;;;;;;4969903;28;20098;-65
2023/05/27 00:08:12;;;;;;;21.13;4.45;;;;;;;;;;4971537;28;20027;-68
2023/05/27 00:10:37;;;;;;;16.58;4.63;;;;;;;;;;4970498;28;20031;-67
2023/05/27 00:13:02;;;;;;;15.95;4.05;;;;;;;;;;4971464;28;20154;-69
2023/05/27 00:15:27;;;;;;;17.42;4.30;;;;;;;;;;4969878;28;20069;-68
2023/05/27 00:17:54;;;;;;;14.30;3.90;;;;;;;;;;4968409;28;20058;-68
2023/05/27 00:20:19;;;;;;;17.50;5.18;;;;;;;;;;4970384;28;20042;-69
2023/05/27 00:22:44;;;;;;;22.55;4.18;;;;;;;;;;4970853;28;20026;-70
2023/05/27 00:25:10;;;;;;;21.40;4.57;;;;;;;;;;4969377;28;20053;-66
2023/05/27 00:27:35;;;;;;;10.25;4.20;;;;;;;;;;4970644;28;20493;-68
2023/05/27 00:30:02;;;;;;;15.55;4.20;;;;;;;;;;4964652;28;20023;-68
2023/05/27 00:32:27;;;;;;;19.58;4.68;;;;;;;;;;4962503;28;20031;-69
2023/05/27 00:34:52;;;;;;;17.35;5.05;;;;;;;;;;4969221;28;20023;-69
2023/05/27 00:37:18;;;;;;;20.65;5.00;;;;;;;;;;4970215;28;20286;-69
2023/05/27 00:39:43;;;;;;;14.27;3.85;;;;;;;;;;4959975;28;20011;-69
2023/05/27 00:42:10;;;;;;;11.80;4.15;;;;;;;;;;4970401;28;20154;-69
2023/05/27 00:44:35;;;;;;;15.48;4.35;;;;;;;;;;4969603;28;20033;-67
2023/05/27 00:47:00;;;;;;;14.65;4.72;;;;;;;;;;4969626;28;20019;-68
2023/05/27 00:49:26;;;;;;;20.20;4.32;;;;;;;;;;4969965;28;20019;-69
2023/05/27 00:51:51;;;;;;;21.48;4.78;;;;;;;;;;4968514;28;20019;-67
2023/05/27 00:54:17;;;;;;;19.50;4.53;;;;;;;;;;4969655;28;20027;-69
2023/05/27 00:56:43;;;;;;;18.20;4.63;;;;;;;;;;4969955;28;20025;-68
2023/05/27 00:59:08;;;;;;;18.50;4.65;;;;;;;;;;4969969;28;20050;-67
2023/05/27 01:01:36;;;;;;;15.35;4.20;;;;;;;;;;4969751;28;20166;-66
2023/05/27 01:04:02;;;;;;;22.95;4.75;;;;;;;;;;4968659;28;20185;-71
2023/05/27 01:06:30;;;;;;;12.90;4.28;;;;;;;;;;4969731;28;20089;-67
2023/05/27 01:09:09;;;;;;;13.57;3.97;;;;;;;;;;4970367;28;20061;-68
2023/05/27 01:11:40;;;;;;;20.17;4.43;;;;;;;;;;4969236;28;20035;-69
2023/05/27 01:14:09;;;;;;;14.13;4.25;;;;;;;;;;4969422;28;20015;-69
2023/05/27 01:16:35;;;;;;;24.95;5.15;;;;;;;;;;4969411;28;20531;-70
2023/05/27 01:19:03;;;;;;;22.35;5.70;;;;;;;;;;4968619;28;20034;-68
2023/05/27 01:21:29;;;;;;;14.38;3.78;;;;;;;;;;4969710;28;20060;-69
2023/05/27 01:24:01;;;;;;;15.25;4.07;;;;;;;;;;4969657;28;20029;-68
2023/05/27 01:26:27;;;;;;;16.95;4.13;;;;;;;;;;4970359;28;20509;-68
2023/05/27 01:28:52;;;;;;;17.85;4.25;;;;;;;;;;4972830;28;20062;-67
2023/05/27 01:31:17;;;;;;;16.77;4.45;;;;;;;;;;4960920;28;20097;-70
2023/05/27 01:33:48;;;;;;;23.33;4.47;;;;;;;;;;4972034;28;20448;-67
2023/05/27 01:36:15;;;;;;;18.08;3.58;;;;;;;;;;4973094;28;20031;-66
2023/05/27 01:38:42;;;;;;;19.83;4.63;;;;;;;;;;4973454;28;20029;-69
2023/05/27 01:41:08;;;;;;;20.42;4.43;;;;;;;;;;4969257;28;20086;-69
2023/05/27 01:43:34;;;;;;;17.80;4.63;;;;;;;;;;4972773;28;20019;-67
2023/05/27 01:45:59;;;;;;;15.80;4.18;;;;;;;;;;4972950;28;20085;-69
2023/05/27 01:48:24;;;;;;;17.40;5.07;;;;;;;;;;4973401;28;20026;-68
2023/05/27 01:50:49;;;;;;;28.60;5.13;;;;;;;;;;4972490;28;20045;-69
2023/05/27 01:53:15;;;;;;;26.52;5.00;;;;;;;;;;4973410;28;20023;-68
2023/05/27 01:55:40;;;;;;;18.00;5.43;;;;;;;;;;4972240;28;20019;-69
2023/05/27 01:58:05;;;;;;;14.13;4.50;;;;;;;;;;4973249;28;20065;-68
2023/05/27 02:00:30;;;;;;;23.52;4.38;;;;;;;;;;4973210;28;20078;-69
2023/05/27 02:02:56;;;;;;;11.32;3.95;;;;;;;;;;4974050;28;20033;-68
2023/05/27 02:05:21;;;;;;;16.80;4.22;;;;;;;;;;4972065;28;20521;-69
2023/05/27 02:07:46;;;;;;;14.27;4.15;;;;;;;;;;4972275;28;20380;-69
2023/05/27 02:10:11;;;;;;;10.88;3.97;;;;;;;;;;4973280;28;20484;-67
2023/05/27 02:12:37;;;;;;;15.65;3.97;;;;;;;;;;4972688;28;20384;-67
2023/05/27 02:15:03;;;;;;;18.25;4.43;;;;;;;;;;4972228;28;20027;-68
2023/05/27 02:17:28;;;;;;;19.50;4.65;;;;;;;;;;4971993;28;20027;-67
2023/05/27 02:19:55;;;;;;;20.60;4.63;;;;;;;;;;4972243;28;20400;-67
2023/05/27 02:22:20;;;;;;;12.23;4.20;;;;;;;;;;4972520;28;20029;-68
2023/05/27 02:24:45;;;;;;;18.20;4.88;;;;;;;;;;4971861;28;20091;-69
2023/05/27 02:27:11;;;;;;;18.00;4.43;;;;;;;;;;4972112;28;20123;-67
2023/05/27 02:29:36;;;;;;;18.48;4.38;;;;;;;;;;4970381;28;20029;-69
2023/05/27 02:32:01;;;;;;;15.55;4.72;;;;;;;;;;4960515;28;20098;-67
2023/05/27 02:34:29;;;;;;;22.98;4.60;;;;;;;;;;4971671;28;20045;-68
2023/05/27 02:36:55;;;;;;;21.42;4.88;;;;;;;;;;4972441;28;20485;-69
2023/05/27 02:39:20;;;;;;;23.08;6.38;;;;;;;;;;4969498;28;20039;-67
2023/05/27 02:41:46;;;;;;;18.75;4.60;;;;;;;;;;4971202;28;20412;-68
2023/05/27 02:44:11;;;;;;;16.77;4.90;;;;;;;;;;4971723;28;20030;-68
2023/05/27 02:46:36;;;;;;;15.75;5.07;;;;;;;;;;4971383;28;20030;-67
2023/05/27 02:49:01;;;;;;;23.60;4.40;;;;;;;;;;4971788;28;20019;-68
2023/05/27 02:51:28;;;;;;;20.35;5.05;;;;;;;;;;4971968;28;20030;-68
2023/05/27 02:53:53;;;;;;;21.10;5.05;;;;;;;;;;4971743;28;20432;-69
2023/05/27 02:56:18;;;;;;;19.40;4.30;;;;;;;;;;4972370;28;20511;-70
2023/05/27 02:58:43;;;;;;;15.43;4.55;;;;;;;;;;4971854;28;20366;-70
2023/05/27 03:01:08;;;;;;;15.57;4.25;;;;;;;;;;4971084;28;20489;-71
2023/05/27 03:03:34;;;;;;;21.27;4.30;;;;;;;;;;4970998;28;20492;-70
2023/05/27 03:05:59;;;;;;;15.13;4.30;;;;;;;;;;4971420;28;20027;-69
2023/05/27 03:08:24;;;;;;;21.42;4.18;;;;;;;;;;4972068;28;20077;-69
2023/05/27 03:10:50;;;;;;;16.35;4.28;;;;;;;;;;4970919;28;20049;-68
2023/05/27 03:13:15;;;;;;;20.70;4.57;;;;;;;;;;4971681;28;20396;-70
2023/05/27 03:15:40;;;;;;;16.98;4.03;;;;;;;;;;4970948;28;20035;-68
2023/05/27 03:18:06;;;;;;;24.95;5.35;;;;;;;;;;4971229;28;20176;-68
2023/05/27 03:20:31;;;;;;;14.93;4.32;;;;;;;;;;4971315;28;20029;-69
2023/05/27 03:22:56;;;;;;;18.55;5.93;;;;;;;;;;4971932;28;20563;-70
2023/05/27 03:25:21;;;;;;;23.98;4.60;;;;;;;;;;4971235;28;20385;-69
2023/05/27 03:27:47;;;;;;;14.25;4.53;;;;;;;;;;4971685;28;20639;-70
2023/05/27 03:30:12;;;;;;;19.58;5.53;;;;;;;;;;4960431;28;20053;-69
2023/05/27 03:32:37;;;;;;;18.55;4.82;;;;;;;;;;4965636;28;20068;-68
2023/05/27 03:35:03;;;;;;;18.83;4.85;;;;;;;;;;4970727;28;20389;-69
2023/05/27 03:37:28;;;;;;;17.55;4.72;;;;;;;;;;4971344;28;20122;-67
2023/05/27 03:39:54;;;;;;;16.05;4.32;;;;;;;;;;4954379;28;20015;-68
2023/05/27 03:42:19;;;;;;;14.82;4.07;;;;;;;;;;4974885;28;20023;-69
2023/05/27 03:44:45;;;;;;;14.27;4.15;;;;;;;;;;4970619;28;20019;-68
2023/05/27 03:47:10;;;;;;;18.58;4.38;;;;;;;;;;4970144;28;20022;-70
2023/05/27 03:49:35;;;;;;;18.80;4.32;;;;;;;;;;4970824;28;20030;-68
2023/05/27 03:52:00;;;;;;;20.42;4.85;;;;;;;;;;4970485;28;20025;-69
2023/05/27 03:54:25;;;;;;;11.00;3.90;;;;;;;;;;4970787;28;20030;-68
2023/05/27 03:56:51;;;;;;;15.73;4.13;;;;;;;;;;4971211;28;20093;-69
2023/05/27 03:59:17;;;;;;;19.65;4.35;;;;;;;;;;4970903;28;20069;-69
2023/05/27 04:01:46;;;;;;;16.60;4.00;;;;;;;;;;4970533;28;20023;-69
2023/05/27 04:04:12;;;;;;;32.38;5.82;;;;;;;;;;4956730;28;20046;-69
2023/05/27 04:06:38;;;;;;;21.63;4.75;;;;;;;;;;4970819;28;20053;-70
2023/05/27 04:09:03;;;;;;;21.63;4.93;;;;;;;;;;4990317;23;20043;-61
2023/05/27 04:11:29;;;;;;;17.45;4.43;;;;;;;;;;4990585;28;20026;-64
2023/05/27 04:13:54;;;;;;;12.63;3.38;;;;;;;;;;4976960;28;20031;-63
2023/05/27 04:16:21;;;;;;;22.13;4.32;;;;;;;;;;4989955;28;20138;-64
2023/05/27 04:18:49;;;;;;;19.83;4.35;;;;;;;;;;4976854;28;20073;-63
2023/05/27 04:21:17;;;;;;;16.33;4.72;;;;;;;;;;4990245;28;20018;-64
2023/05/27 04:23:43;;;;;;;25.40;4.75;;;;;;;;;;4989529;28;20506;-64
2023/05/27 04:26:08;;;;;;;16.95;4.70;;;;;;;;;;4989216;28;20038;-65
2023/05/27 04:28:35;;;;;;;17.33;5.28;;;;;;;;;;4990275;28;20065;-64
2023/05/27 04:31:00;;;;;;;22.98;4.57;;;;;;;;;;4989644;28;20018;-64
2023/05/27 04:33:26;;;;;;;23.92;4.32;;;;;;;;;;4980066;28;20026;-61
2023/05/27 04:35:53;;;;;;;17.60;4.82;;;;;;;;;;4989349;28;20034;-65
2023/05/27 04:38:20;;;;;;;24.02;5.32;;;;;;;;;;4972792;28;20428;-65
2023/05/27 04:40:46;;;;;;;17.20;4.57;;;;;;;;;;4984923;28;20639;-61
2023/05/27 04:43:14;;;;;;;23.88;4.68;;;;;;;;;;4983854;28;20050;-64
2023/05/27 04:45:39;;;;;;;13.85;4.00;;;;;;;;;;4988056;28;20080;-64
2023/05/27 04:48:04;;;;;;;12.40;3.78;;;;;;;;;;4989597;28;20443;-64
2023/05/27 04:50:31;;;;;;;18.30;4.68;;;;;;;;;;4989485;28;20030;-65
2023/05/27 04:52:56;;;;;;;19.88;4.85;;;;;;;;;;4989964;28;20065;-63
2023/05/27 04:55:22;;;;;;;17.42;4.68;;;;;;;;;;4989039;28;20035;-64
2023/05/27 04:57:48;;;;;;;17.23;4.50;;;;;;;;;;4990078;28;20034;-64
2023/05/27 05:00:20;;;;;;;25.17;4.68;;;;;;;;;;4989602;28;20050;-61
2023/05/27 05:02:47;;;;;;;20.05;5.18;;;;;;;;;;4992058;28;20007;-64
2023/05/27 05:05:12;;;;;;;22.58;4.45;;;;;;;;;;4992457;28;20010;-64
2023/05/27 05:07:39;;;;;;;15.23;3.65;;;;;;;;;;4993816;28;20033;-63
2023/05/27 05:10:06;;;;;;;20.50;4.30;;;;;;;;;;4993471;28;20555;-62
2023/05/27 05:12:31;;;;;;;18.88;4.53;;;;;;;;;;4992150;28;20022;-63
2023/05/27 05:14:57;;;;;;;18.13;4.43;;;;;;;;;;4992767;28;20085;-63
2023/05/27 05:17:24;;;;;;;20.42;4.97;;;;;;;;;;4988038;28;20520;-64
2023/05/27 05:19:49;;;;;;;19.13;5.05;;;;;;;;;;4984926;28;20018;-64
2023/05/27 05:22:14;;;;;;;23.77;4.75;;;;;;;;;;4993404;28;20029;-63
2023/05/27 05:24:40;;;;;;;25.25;4.90;;;;;;;;;;4993095;28;20050;-64
2023/05/27 05:27:07;;;;;;;23.67;5.47;;;;;;;;;;4993635;28;20100;-64
2023/05/27 05:29:32;;;;;;;19.92;4.65;;;;;;;;;;4990973;28;20022;-64
2023/05/27 05:31:57;;;;;;;19.88;4.20;;;;;;;;;;4983813;28;20070;-65
2023/05/27 05:34:22;;;;;;;20.63;4.18;;;;;;;;;;4989904;28;20019;-65
2023/05/27 05:36:48;;;;;;;17.92;4.78;;;;;;;;;;4987648;28;20101;-64
2023/05/27 05:39:13;;;;;;;21.08;4.68;;;;;;;;;;4978041;28;20030;-59
2023/05/27 05:41:38;;;;;;;23.95;5.20;;;;;;;;;;4994039;28;20019;-64
2023/05/27 05:44:03;;;;;;;18.90;5.05;;;;;;;;;;4986081;28;20018;-62
2023/05/27 05:46:29;;;;;;;19.00;4.47;;;;;;;;;;4991193;28;20389;-65
2023/05/27 05:48:54;;;;;;;12.55;3.78;;;;;;;;;;4984542;28;20600;-63
2023/05/27 05:51:19;;;;;;;12.85;4.22;;;;;;;;;;4993329;28;20030;-63
2023/05/27 05:53:45;;;;;;;26.60;4.45;;;;;;;;;;4991683;28;20097;-63
2023/05/27 05:56:10;;;;;;;16.73;4.15;;;;;;;;;;4992509;28;20026;-63
2023/05/27 05:58:35;;;;;;;17.48;4.38;;;;;;;;;;4989915;28;20057;-62
2023/05/27 06:01:01;;;;;;;18.23;4.47;;;;;;;;;;4982165;28;20018;-64
2023/05/27 06:03:26;;;;;;;22.58;4.72;;;;;;;;;;4983949;28;20014;-63
2023/05/27 06:05:51;;;;;;;17.73;5.43;;;;;;;;;;4985786;28;20018;-61
2023/05/27 06:08:17;;;;;;;22.48;4.47;;;;;;;;;;4983779;28;20942;-64
2023/05/27 06:10:42;;;;;;;14.07;4.40;;;;;;;;;;4991137;28;20563;-63
2023/05/27 06:13:10;;;;;;;23.40;4.43;;;;;;;;;;4980733;28;20501;-65
2023/05/27 06:15:36;;;;;;;22.02;4.35;;;;;;;;;;4987755;28;20024;-64
2023/05/27 06:18:01;;;;;;;28.83;5.82;;;;;;;;;;4983355;28;20101;-63
2023/05/27 06:20:26;;;;;;;12.80;4.38;;;;;;;;;;4977895;28;20462;-63
2023/05/27 06:22:51;;;;;;;14.75;3.67;;;;;;;;;;4988144;28;20389;-64
2023/05/27 06:25:17;;;;;;;10.77;2.97;;;;;;;;;;4987681;28;20453;-65
2023/05/27 06:27:42;;;;;;;15.13;3.50;;;;;;;;;;4984776;28;20030;-64
2023/05/27 06:30:07;;;;;;;13.30;3.03;;;;;;;;;;4991641;28;20019;-66
2023/05/27 06:32:33;;;;;;;15.10;2.75;;;;;;;;;;4985605;28;20025;-62
2023/05/27 06:34:58;;;;;;;20.42;3.78;;;;;;;;;;4990525;28;20026;-64
2023/05/27 06:37:23;;;;;;;17.80;3.28;;;;;;;;;;4991591;28;20034;-61
2023/05/27 06:39:49;;;;;;;17.55;3.72;;;;;;;;;;4990187;28;20014;-63
2023/05/27 06:42:14;;;;;;;18.90;2.70;;;;;;;;;;4991259;28;20026;-62
2023/05/27 06:44:39;;;;;;;15.00;3.83;;;;;;;;;;4986415;28;20174;-64
2023/05/27 06:47:05;;;;;;;14.88;3.80;;;;;;;;;;4979306;28;20030;-63
2023/05/27 06:49:30;;;;;;;12.48;3.50;;;;;;;;;;4991017;28;20099;-60
2023/05/27 06:51:55;;;;;;;14.65;3.17;;;;;;;;;;4991545;28;20019;-62
2023/05/27 06:54:20;;;;;;;21.65;3.78;;;;;;;;;;4991523;28;20021;-62
2023/05/27 06:56:46;;;;;;;10.15;3.05;;;;;;;;;;4991568;28;20029;-63
2023/05/27 06:59:11;;;;;;;18.63;3.45;;;;;;;;;;4983870;28;20030;-64
2023/05/27 07:01:36;;;;;;;18.08;3.42;;;;;;;;;;4984994;28;20030;-67
2023/05/27 07:04:01;;;;;;;15.38;3.00;;;;;;;;;;4982680;28;20045;-62
2023/05/27 07:06:27;;;;;;;16.13;3.60;;;;;;;;;;4982320;28;20018;-63
2023/05/27 07:08:52;;;;;;;11.13;2.35;;;;;;;;;;4984944;28;20077;-66
2023/05/27 07:11:17;;;;;;;18.60;3.17;;;;;;;;;;4986399;28;20126;-62
2023/05/27 07:13:43;;;;;;;14.77;2.65;;;;;;;;;;4989199;28;20023;-63
2023/05/27 07:16:08;;;;;;;17.70;2.65;;;;;;;;;;4984476;28;20258;-61
2023/05/27 07:18:33;;;;;;;12.40;2.92;;;;;;;;;;4985574;28;20030;-61
2023/05/27 07:20:58;;;;;;;11.50;2.50;;;;;;;;;;4983312;28;20011;-56
2023/05/27 07:23:24;;;;;;;11.88;2.50;;;;;;;;;;4982638;28;20022;-62
2023/05/27 07:25:49;;;;;;;15.48;2.80;;;;;;;;;;4989303;28;20033;-62
2023/05/27 07:28:15;;;;;;;14.70;2.95;;;;;;;;;;4990518;28;20481;-63
2023/05/27 07:30:40;;;;;;;13.88;3.00;;;;;;;;;;4990683;28;20022;-58
2023/05/27 07:33:05;;;;;;;27.85;3.58;;;;;;;;;;4981315;28;20026;-62
2023/05/27 07:35:30;;;;;;;17.42;3.28;;;;;;;;;;4989089;28;20369;-61
2023/05/27 07:37:56;;;;;;;19.15;2.75;;;;;;;;;;4989530;28;20076;-62
2023/05/27 07:40:21;;;;;;;12.23;2.38;;;;;;;;;;4984645;28;20054;-62
2023/05/27 07:42:46;;;;;;;12.68;2.30;;;;;;;;;;4987195;28;20026;-62
2023/05/27 07:45:12;;;;;;;12.25;3.72;;;;;;;;;;4988840;28;20014;-62
2023/05/27 07:47:37;;;;;;;10.75;2.10;;;;;;;;;;4988505;28;20028;-61
2023/05/27 07:50:03;;;;;;;14.73;2.67;;;;;;;;;;4979461;28;20045;-65
2023/05/27 07:52:28;;;;;;;11.57;2.75;;;;;;;;;;4989387;28;20025;-63
2023/05/27 07:54:53;;;;;;;11.02;3.05;;;;;;;;;;4985904;28;20030;-62
2023/05/27 07:57:19;;;;;;;11.23;2.53;;;;;;;;;;4982150;28;20038;-60
2023/05/27 07:59:44;;;;;;;10.05;2.13;;;;;;;;;;4977221;28;20027;-62
2023/05/27 08:02:10;;;;;;;18.00;2.95;;;;;;;;;;4981460;28;20029;-62
2023/05/27 08:04:35;;;;;;;13.80;3.00;;;;;;;;;;4982201;28;20032;-62
2023/05/27 08:07:01;;;;;;;15.15;3.35;;;;;;;;;;4990205;28;20018;-64
2023/05/27 08:09:26;;;;;;;14.55;2.38;;;;;;;;;;4980812;28;20038;-59
2023/05/27 08:11:51;;;;;;;15.93;2.53;;;;;;;;;;4983852;28;20060;-62
2023/05/27 08:14:16;;;;;;;12.23;2.20;;;;;;;;;;4984056;28;20033;-60
2023/05/27 08:16:42;;;;;;;11.00;2.80;;;;;;;;;;4973618;28;20042;-63
2023/05/27 08:19:07;;;;;;;19.40;2.72;;;;;;;;;;4987117;28;20029;-63
2023/05/27 08:21:32;;;;;;;11.77;2.72;;;;;;;;;;4990518;28;20053;-64
2023/05/27 08:23:58;;;;;;;16.45;2.45;;;;;;;;;;4989096;28;20030;-60
2023/05/27 08:26:23;;;;;;;9.30;2.00;;;;;;;;;;4987613;28;20492;-64
2023/05/27 08:28:48;;;;;;;10.95;2.45;;;;;;;;;;4988387;28;20093;-62
2023/05/27 08:31:13;;;;;;;9.05;2.00;;;;;;;;;;4988909;28;20025;-65
2023/05/27 08:33:39;;;;;;;8.60;2.50;;;;;;;;;;4975302;28;20022;-63
2023/05/27 08:36:04;;;;;;;10.25;2.63;;;;;;;;;;4979132;28;20022;-64
2023/05/27 08:38:30;;;;;;;11.18;2.33;;;;;;;;;;4986396;28;20026;-64
2023/05/27 08:40:55;;;;;;;13.23;3.00;;;;;;;;;;4985149;28;20021;-63
2023/05/27 08:43:22;;;;;;;13.82;2.78;;;;;;;;;;4990103;28;20022;-64
2023/05/27 08:45:48;;;;;;;11.40;2.70;;;;;;;;;;4989600;28;20042;-62
2023/05/27 08:48:14;;;;;;;15.13;2.85;;;;;;;;;;4989537;28;20037;-63
2023/05/27 08:50:40;;;;;;;13.63;2.88;;;;;;;;;;4989061;28;20033;-64
2023/05/27 08:53:05;;;;;;;11.40;2.80;;;;;;;;;;4989372;28;20027;-61
2023/05/27 08:55:31;;;;;;;9.23;2.30;;;;;;;;;;4988386;28;20061;-62
2023/05/27 08:57:58;;;;;;;12.75;2.50;;;;;;;;;;4989301;28;20061;-61
2023/05/27 09:00:25;;;;;;;5.28;1.75;;;;;;;;;;4989289;28;20457;-61
2023/05/27 09:02:50;;;;;;;12.23;2.58;;;;;;;;;;4982721;28;20023;-66
2023/05/27 09:05:16;;;;;;;16.02;3.30;;;;;;;;;;4984964;28;20014;-63
2023/05/27 09:07:41;;;;;;;11.50;2.72;;;;;;;;;;4989157;28;20031;-64
2023/05/27 09:10:07;;;;;;;19.52;2.78;;;;;;;;;;4989176;28;20034;-60
2023/05/27 09:12:33;;;;;;;13.13;2.92;;;;;;;;;;4988202;28;20034;-64
2023/05/27 09:14:58;;;;;;;13.05;3.00;;;;;;;;;;4988880;28;20014;-66
2023/05/27 09:17:23;;;;;;;14.90;3.17;;;;;;;;;;4985428;28;20041;-63
2023/05/27 09:19:53;;;;;;;12.57;2.78;;;;;;;;;;4985178;28;20020;-63
2023/05/27 09:22:38;;;;;;;12.02;2.30;;;;;;;;;;4989318;28;20512;-62
2023/05/27 09:25:04;;;;;;;9.02;1.90;;;;;;;;;;4988339;28;20109;-61
2023/05/27 09:27:30;;;;;;;19.08;3.08;;;;;;;;;;4989828;28;20540;-59
2023/05/27 09:29:57;;;;;;;12.05;2.60;;;;;;;;;;4986789;28;20105;-64
2023/05/27 09:32:26;;;;;;;7.20;2.15;;;;;;;;;;4985665;28;20019;-65
2023/05/27 09:34:52;;;;;;;14.65;2.53;;;;;;;;;;4986154;28;20023;-63
2023/05/27 09:37:18;;;;;;;14.65;3.35;;;;;;;;;;4989076;28;20033;-61
2023/05/27 09:39:44;;;;;;;12.43;3.10;;;;;;;;;;4985982;28;20073;-65
2023/05/27 09:42:09;;;;;;;9.95;2.38;;;;;;;;;;4987490;28;20515;-64
2023/05/27 09:44:40;;;;;;;11.13;2.70;;;;;;;;;;4986839;28;20507;-63
2023/05/27 09:47:06;;;;;;;11.00;2.47;;;;;;;;;;4989054;28;20041;-65
2023/05/27 09:49:32;;;;;;;11.23;2.88;;;;;;;;;;4991651;28;20526;-64
2023/05/27 09:51:58;;;;;;;6.00;2.13;;;;;;;;;;4992435;28;20102;-63
2023/05/27 09:54:24;;;;;;;10.00;2.35;;;;;;;;;;4991862;28;20512;-65
2023/05/27 09:56:49;;;;;;;8.20;2.08;;;;;;;;;;4985370;28;20061;-64
2023/05/27 09:59:14;;;;;;;14.65;3.35;;;;;;;;;;4991586;28;20030;-63
2023/05/27 10:01:40;;;;;;;16.52;2.63;;;;;;;;;;4992253;28;20017;-64
2023/05/27 10:04:06;;;;;;;13.57;3.15;;;;;;;;;;4989960;28;20084;-67
2023/05/27 10:06:32;;;;;;;10.52;2.13;;;;;;;;;;4990513;28;20022;-65
2023/05/27 10:08:58;;;;;;;10.60;2.30;;;;;;;;;;5002620;23;20046;-71
2023/05/27 10:11:23;;;;;;;10.30;2.17;;;;;;;;;;4992533;28;20036;-70
2023/05/27 10:13:49;;;;;;;8.32;2.50;;;;;;;;;;4991561;28;20025;-69
2023/05/27 10:16:21;;;;;;;11.18;2.55;;;;;;;;;;4988779;28;20479;-71
2023/05/27 10:18:52;;;;;;;10.35;2.50;;;;;;;;;;4991746;28;20034;-71
2023/05/27 10:21:21;;;;;;;9.30;2.38;;;;;;;;;;4985431;28;20439;-70
2023/05/27 10:23:55;;;;;;;14.32;3.05;;;;;;;;;;4976502;28;20031;-70
2023/05/27 10:26:31;;;;;;;13.43;2.88;;;;;;;;;;4992138;28;20086;-71
2023/05/27 10:29:04;;;;;;;11.13;2.13;;;;;;;;;;4990647;28;20040;-72
2023/05/27 10:31:30;;;;;;;12.35;2.47;;;;;;;;;;4991740;28;20022;-72
2023/05/27 10:33:57;;;;;;;7.65;2.33;;;;;;;;;;4989752;28;20030;-72
2023/05/27 10:36:26;;;;;;;13.80;2.85;;;;;;;;;;4990655;28;20023;-71
2023/05/27 10:38:51;;;;;;;;;;;;;;;;;;4990675;28;20026;-72
2023/05/27 10:41:16;;;;;;;15.63;2.93;;;;;;;;;;4992050;28;19920;-71
2023/05/27 10:43:42;;;;;;;8.75;2.35;;;;;;;;;;4983878;28;20816;-70
2023/05/27 10:46:13;;;;;;;13.18;2.30;;;;;;;;;;4991081;28;20053;-72
2023/05/27 10:48:41;;;;;;;7.32;2.13;;;;;;;;;;4990474;28;20399;-70
2023/05/27 10:51:07;;;;;;;9.07;2.30;;;;;;;;;;4989586;28;20018;-72
2023/05/27 10:53:34;;;;;;;11.85;3.15;;;;;;;;;;4991519;28;20037;-72
2023/05/27 10:56:00;;;;;;;9.43;2.38;;;;;;;;;;4990371;28;20015;-70
2023/05/27 10:58:26;;;;;;;9.15;2.15;;;;;;;;;;4985726;28;20084;-70
2023/05/27 11:00:52;;;;;;;10.55;2.33;;;;;;;;;;4989450;28;20097;-72
2023/05/27 11:03:25;;;;;;;10.05;2.47;;;;;;;;;;4988034;28;20038;-73
2023/05/27 11:06:16;;;;;;;10.15;2.55;;;;;;;;;;4989540;28;20082;-72
2023/05/27 11:08:42;;;;;;;9.73;2.85;;;;;;;;;;4980007;28;20038;-73
2023/05/27 11:11:07;;;;;;;11.25;2.70;;;;;;;;;;4991783;28;20034;-73
2023/05/27 11:13:33;;;;;;;13.38;2.60;;;;;;;;;;4991515;28;20018;-72
2023/05/27 11:15:59;;;;;;;12.85;2.90;;;;;;;;;;4992912;28;20030;-73
2023/05/27 11:18:25;;;;;;;5.60;2.25;;;;;;;;;;4991955;28;20025;-73
2023/05/27 11:20:50;;;;;;;14.52;2.60;;;;;;;;;;4990680;28;20404;-72
2023/05/27 11:23:16;;;;;;;14.27;3.08;;;;;;;;;;4991701;28;20361;-73
2023/05/27 11:25:44;;;;;;;9.52;2.35;;;;;;;;;;4991235;28;20077;-73
2023/05/27 11:28:14;;;;;;;11.23;2.30;;;;;;;;;;4992058;28;20113;-74
2023/05/27 11:30:40;;;;;;;11.05;2.20;;;;;;;;;;4990925;28;20038;-72
2023/05/27 11:33:05;;;;;;;7.03;2.35;;;;;;;;;;4990595;28;20023;-73
2023/05/27 11:35:30;;;;;;;10.63;2.53;;;;;;;;;;4989411;28;20030;-72
2023/05/27 11:37:57;;;;;;;10.63;2.78;;;;;;;;;;4991585;28;20797;-74
2023/05/27 11:40:22;;;;;;;14.65;3.38;;;;;;;;;;4980358;28;20023;-72
2023/05/27 11:42:47;;;;;;;9.43;2.75;;;;;;;;;;4984220;28;20021;-72
2023/05/27 11:45:16;;;;;;;11.55;2.50;;;;;;;;;;4990331;28;20480;-68
2023/05/27 11:47:42;;;;;;;11.05;2.22;;;;;;;;;;4989805;28;20034;-72
2023/05/27 11:50:08;;;;;;;10.23;2.47;;;;;;;;;;4989163;28;20056;-71
2023/05/27 11:52:33;;;;;;;8.38;2.83;;;;;;;;;;4991242;28;20062;-72
2023/05/27 11:54:58;;;;;;;9.52;2.10;;;;;;;;;;4990063;28;20061;-72
2023/05/27 11:57:24;;;;;;;11.43;4.05;;;;;;;;;;4990872;28;20037;-72
2023/05/27 11:59:49;;;;;;;14.15;3.20;;;;;;;;;;4990784;28;20046;-73
2023/05/27 12:02:15;;;;;;;11.20;3.25;;;;;;;;;;4990809;28;20041;-73
2023/05/27 12:04:41;;;;;;;11.45;3.05;;;;;;;;;;4989792;28;20023;-72
2023/05/27 12:07:06;;;;;;;12.35;2.58;;;;;;;;;;4990488;28;20022;-72
2023/05/27 12:09:32;;;;;;;9.52;2.42;;;;;;;;;;4989080;28;20076;-71
2023/05/27 12:11:57;;;;;;;12.85;3.42;;;;;;;;;;4990123;28;20029;-71
2023/05/27 12:14:22;;;;;;;28.48;4.35;;;;;;;;;;4990170;28;20114;-78
2023/05/27 12:16:48;;;;;;;11.20;2.83;;;;;;;;;;4990307;28;20018;-72
2023/05/27 12:19:13;;;;;;;10.48;2.85;;;;;;;;;;4988484;28;20089;-72
2023/05/27 12:21:38;;;;;;;14.25;2.63;;;;;;;;;;4990108;28;20471;-71
2023/05/27 12:24:03;;;;;;;10.20;2.67;;;;;;;;;;4995185;28;20457;-71
2023/05/27 12:26:29;;;;;;;9.10;2.78;;;;;;;;;;4989465;28;20029;-73
2023/05/27 12:28:55;;;;;;;9.15;2.40;;;;;;;;;;4990291;28;20548;-72
2023/05/27 12:31:21;;;;;;;10.85;2.97;;;;;;;;;;4982155;28;20023;-71
2023/05/27 12:33:46;;;;;;;11.77;2.85;;;;;;;;;;4988946;28;20029;-72
2023/05/27 12:36:11;;;;;;;9.13;2.25;;;;;;;;;;4989519;28;20121;-71
2023/05/27 12:38:37;;;;;;;18.42;3.08;;;;;;;;;;4983098;28;20030;-71
2023/05/27 12:41:03;;;;;;;8.88;2.65;;;;;;;;;;4984176;28;20019;-72
2023/05/27 12:43:28;;;;;;;27.65;3.30;;;;;;;;;;4983236;28;20073;-73
2023/05/27 12:45:53;;;;;;;8.80;2.55;;;;;;;;;;4990088;28;20014;-72
2023/05/27 12:48:18;;;;;;;8.73;2.38;;;;;;;;;;4990296;28;20018;-71
2023/05/27 12:50:44;;;;;;;7.15;2.60;;;;;;;;;;4988905;28;20022;-72
2023/05/27 12:53:09;;;;;;;8.48;2.55;;;;;;;;;;4990093;28;20018;-71
2023/05/27 12:55:35;;;;;;;7.25;3.35;;;;;;;;;;4990000;28;20034;-72
2023/05/27 12:58:00;;;;;;;11.48;2.85;;;;;;;;;;4990453;28;20018;-74
2023/05/27 13:00:29;;;;;;;6.63;2.30;;;;;;;;;;4989921;28;20089;-72
2023/05/27 13:02:54;;;;;;;8.55;1.92;;;;;;;;;;4989590;28;20019;-72
2023/05/27 13:05:22;;;;;;;12.30;2.72;;;;;;;;;;4988292;28;20030;-72
2023/05/27 13:07:57;;;;;;;6.97;2.00;;;;;;;;;;4990213;28;20488;-71
2023/05/27 13:10:23;;;;;;;13.52;2.42;;;;;;;;;;4989237;28;20045;-71
2023/05/27 13:12:49;;;;;;;10.98;2.55;;;;;;;;;;4989739;28;20030;-70
2023/05/27 13:15:16;;;;;;;10.70;2.60;;;;;;;;;;4988909;28;20091;-72
2023/05/27 13:17:41;;;;;;;9.85;2.40;;;;;;;;;;4989424;28;20014;-71
2023/05/27 13:20:07;;;;;;;22.75;3.53;;;;;;;;;;4988014;28;20457;-72
2023/05/27 13:22:32;;;;;;;10.45;2.53;;;;;;;;;;4990605;28;20416;-72
2023/05/27 13:24:57;;;;;;;8.57;2.33;;;;;;;;;;4992484;28;20035;-73
2023/05/27 13:27:22;;;;;;;9.70;2.72;;;;;;;;;;4994157;28;20109;-70
2023/05/27 13:29:48;;;;;;;7.85;2.20;;;;;;;;;;4992809;28;20493;-72
2023/05/27 13:32:13;;;;;;;39.53;4.40;;;;;;;;;;4985885;28;20015;-72
2023/05/27 13:34:38;;;;;;;22.90;3.20;;;;;;;;;;4988896;28;20062;-72
2023/05/27 13:37:04;;;;;;;22.60;3.38;;;;;;;;;;4993372;28;20030;-72
2023/05/27 13:39:30;;;;;;;9.02;2.65;;;;;;;;;;4992514;28;20025;-72
2023/05/27 13:41:55;;;;;;;13.70;2.90;;;;;;;;;;4987399;28;20106;-72
2023/05/27 13:44:21;;;;;;;6.78;2.20;;;;;;;;;;4989754;28;20010;-71
2023/05/27 13:46:49;;;;;;;9.63;2.60;;;;;;;;;;4992810;28;20041;-71
2023/05/27 13:49:16;;;;;;;9.55;2.67;;;;;;;;;;4992412;28;20837;-72
2023/05/27 13:51:45;;;;;;;10.65;2.42;;;;;;;;;;4993434;28;20080;-70
2023/05/27 13:54:10;;;;;;;8.55;2.45;;;;;;;;;;4992729;28;20030;-71
2023/05/27 13:56:36;;;;;;;10.75;2.33;;;;;;;;;;4993429;28;20084;-71
2023/05/27 13:59:05;;;;;;;10.07;2.35;;;;;;;;;;4992551;28;20490;-70
2023/05/27 14:01:33;;;;;;;7.22;2.60;;;;;;;;;;4990964;28;20014;-73
2023/05/27 14:03:58;;;;;;;;;;;;;;;;;;4988894;28;20476;-73
2023/05/27 14:06:24;;;;;;;10.38;2.40;;;;;;;;;;4990667;28;19910;-73
2023/05/27 14:08:49;;;;;;;7.57;2.20;;;;;;;;;;4992478;28;20506;-74
2023/05/27 14:11:14;;;;;;;7.65;2.20;;;;;;;;;;4992317;28;20419;-72
2023/05/27 14:13:39;;;;;;;9.02;2.53;;;;;;;;;;4988336;28;20113;-73
2023/05/27 14:16:05;;;;;;;8.50;2.28;;;;;;;;;;4974667;28;20480;-70
2023/05/27 14:18:34;;;;;;;18.40;2.55;;;;;;;;;;4987889;28;20105;-71
2023/05/27 14:20:59;;;;;;;9.55;2.30;;;;;;;;;;4990262;28;20019;-71
2023/05/27 14:23:24;;;;;;;12.73;2.37;;;;;;;;;;4991316;28;20414;-74
2023/05/27 14:25:49;;;;;;;7.82;2.28;;;;;;;;;;4991499;28;20777;-72